createdAt,value
2022-09-09T00:00:20.973Z,24.10
2022-09-09T00:01:51.082Z,24.10
2022-09-09T00:03:09.016Z,24.00
2022-09-09T00:04:31.163Z,24.10
2022-09-09T00:05:50.802Z,24.10
2022-09-09T00:07:19.851Z,24.10
2022-09-09T00:08:41.877Z,24.10
2022-09-09T00:09:51.761Z,24.20
2022-09-09T00:11:01.866Z,24.20
2022-09-09T00:12:12.024Z,24.10
2022-09-09T00:14:04.384Z,24.10
2022-09-09T00:15:12.867Z,24.00
2022-09-09T00:16:28.669Z,24.10
2022-09-09T00:17:40.921Z,24.20
2022-09-09T00:18:51.851Z,24.20
2022-09-09T00:19:56.916Z,24.20
2022-09-09T00:21:16.645Z,24.10
2022-09-09T00:22:35.440Z,23.90
2022-09-09T00:23:40.980Z,23.80
2022-09-09T00:25:02.442Z,23.70
2022-09-09T00:26:38.571Z,23.60
2022-09-09T00:27:49.664Z,23.40
2022-09-09T00:29:27.026Z,23.40
2022-09-09T00:30:35.239Z,23.40
2022-09-09T00:31:50.485Z,23.40
2022-09-09T00:33:13.723Z,23.40
2022-09-09T00:34:22.648Z,23.30
2022-09-09T00:35:30.279Z,23.30
2022-09-09T00:36:34.610Z,23.30
2022-09-09T00:37:45.494Z,23.30
2022-09-09T00:38:52.410Z,23.30
2022-09-09T00:39:58.563Z,23.30
2022-09-09T00:41:22.921Z,23.30
2022-09-09T00:42:43.940Z,23.30
2022-09-09T00:44:02.731Z,23.30
2022-09-09T00:45:18.437Z,23.30
2022-09-09T00:46:43.173Z,23.40
2022-09-09T00:47:51.311Z,23.40
2022-09-09T00:49:10.484Z,23.40
2022-09-09T00:50:23.225Z,23.40
2022-09-09T00:51:25.876Z,23.40
2022-09-09T00:52:37.188Z,23.40
2022-09-09T00:54:04.993Z,23.40
2022-09-09T00:55:19.979Z,23.40
2022-09-09T00:56:29.768Z,23.40
2022-09-09T00:57:33.894Z,23.40
2022-09-09T00:58:36.406Z,23.40
2022-09-09T00:59:49.105Z,23.40
2022-09-09T01:01:04.389Z,23.40
2022-09-09T01:03:04.467Z,23.50
2022-09-09T01:04:13.377Z,23.60
2022-09-09T01:05:41.078Z,23.50
2022-09-09T01:06:44.379Z,23.50
2022-09-09T01:07:49.961Z,23.40
2022-09-09T01:09:16.914Z,23.40
2022-09-09T01:10:35.424Z,23.30
2022-09-09T01:11:43.665Z,23.30
2022-09-09T01:12:50.168Z,23.30
2022-09-09T01:14:28.399Z,23.30
2022-09-09T01:15:40.671Z,23.30
2022-09-09T01:16:43.853Z,23.40
2022-09-09T01:17:45.960Z,23.40
2022-09-09T01:18:55.559Z,23.30
2022-09-09T01:20:18.301Z,23.30
2022-09-09T01:21:39.447Z,23.30
2022-09-09T01:22:51.263Z,23.20
2022-09-09T01:24:14.460Z,23.20
2022-09-09T01:26:04.777Z,23.30
2022-09-09T01:27:08.844Z,23.30
2022-09-09T01:28:38.068Z,23.30
2022-09-09T01:29:45.188Z,23.30
2022-09-09T01:30:54.262Z,23.30
2022-09-09T01:32:59.471Z,23.30
2022-09-09T01:34:01.748Z,23.30
2022-09-09T01:35:05.362Z,23.30
2022-09-09T01:36:41.759Z,23.30
2022-09-09T01:37:43.927Z,23.40
2022-09-09T01:38:46.119Z,23.40
2022-09-09T01:39:49.527Z,23.50
2022-09-09T01:40:56.423Z,23.40
2022-09-09T01:42:07.716Z,23.50
2022-09-09T01:43:10.328Z,23.50
2022-09-09T01:44:13.197Z,23.60
2022-09-09T01:45:18.657Z,23.70
2022-09-09T01:46:23.615Z,23.70
2022-09-09T01:47:26.948Z,23.80
2022-09-09T01:48:42.781Z,23.70
2022-09-09T01:49:46.005Z,23.70
2022-09-09T01:50:56.548Z,23.60
2022-09-09T01:51:59.071Z,23.60
2022-09-09T01:53:14.581Z,23.60
2022-09-09T01:54:17.378Z,23.50
2022-09-09T01:55:32.982Z,23.40
2022-09-09T01:56:56.624Z,23.30
2022-09-09T01:58:16.917Z,23.20
2022-09-09T01:59:24.699Z,23.20
2022-09-09T02:00:33.171Z,23.20
2022-09-09T02:02:11.103Z,23.20
2022-09-09T02:03:29.772Z,23.30
2022-09-09T02:05:17.469Z,23.30
2022-09-09T02:06:31.632Z,23.30
2022-09-09T02:07:44.786Z,23.30
2022-09-09T02:09:02.329Z,23.30
2022-09-09T02:10:39.627Z,23.30
2022-09-09T02:12:14.739Z,23.30
2022-09-09T02:13:30.282Z,23.30
2022-09-09T02:14:39.093Z,23.40
2022-09-09T02:16:07.342Z,23.40
2022-09-09T02:17:14.596Z,23.40
2022-09-09T02:18:49.672Z,23.50
2022-09-09T02:20:00.412Z,23.50
2022-09-09T02:21:18.380Z,23.50
2022-09-09T02:22:24.910Z,23.40
2022-09-09T02:23:29.404Z,23.40
2022-09-09T02:24:36.065Z,23.40
2022-09-09T02:25:59.138Z,23.30
2022-09-09T02:27:05.641Z,23.30
2022-09-09T02:28:10.723Z,23.30
2022-09-09T02:29:19.017Z,23.40
2022-09-09T02:30:22.446Z,23.40
2022-09-09T02:31:41.339Z,23.40
2022-09-09T02:32:58.127Z,23.50
2022-09-09T02:34:13.958Z,23.50
2022-09-09T02:35:21.611Z,23.50
2022-09-09T02:36:34.831Z,23.50
2022-09-09T02:37:47.171Z,23.50
2022-09-09T02:38:54.093Z,23.50
2022-09-09T02:40:00.559Z,23.60
2022-09-09T02:41:03.429Z,23.50
2022-09-09T02:42:06.447Z,23.50
2022-09-09T02:43:08.665Z,23.50
2022-09-09T02:44:20.780Z,23.40
2022-09-09T02:45:45.550Z,23.50
2022-09-09T02:47:14.368Z,23.50
2022-09-09T02:48:28.397Z,23.40
2022-09-09T02:49:54.941Z,23.40
2022-09-09T02:51:14.821Z,23.40
2022-09-09T02:52:27.056Z,23.40
2022-09-09T02:54:06.715Z,23.50
2022-09-09T02:55:18.735Z,23.50
2022-09-09T02:56:26.936Z,23.50
2022-09-09T02:57:33.153Z,23.50
2022-09-09T02:58:35.522Z,23.60
2022-09-09T02:59:41.354Z,23.50
2022-09-09T03:00:47.863Z,23.50
2022-09-09T03:01:50.053Z,23.50
2022-09-09T03:02:52.515Z,23.50
2022-09-09T03:03:56.148Z,23.40
2022-09-09T03:04:59.555Z,23.40
2022-09-09T03:06:02.620Z,23.40
2022-09-09T03:07:05.282Z,23.40
2022-09-09T03:08:07.575Z,23.40
2022-09-09T03:09:11.530Z,23.40
2022-09-09T03:10:14.485Z,23.40
2022-09-09T03:11:18.364Z,23.40
2022-09-09T03:12:28.731Z,23.40
2022-09-09T03:13:31.038Z,23.40
2022-09-09T03:14:39.678Z,23.30
2022-09-09T03:15:42.662Z,23.20
2022-09-09T03:16:49.710Z,23.00
2022-09-09T03:17:52.858Z,23.00
2022-09-09T03:18:55.436Z,22.90
2022-09-09T03:20:05.697Z,22.80
2022-09-09T03:21:08.204Z,22.80
2022-09-09T03:22:13.012Z,22.80
2022-09-09T03:23:17.567Z,22.80
2022-09-09T03:24:21.093Z,22.70
2022-09-09T03:25:27.402Z,22.70
2022-09-09T03:26:31.553Z,22.70
2022-09-09T03:27:42.821Z,22.70
2022-09-09T03:28:48.638Z,22.70
2022-09-09T03:29:53.902Z,22.70
2022-09-09T03:31:01.126Z,22.70
2022-09-09T03:32:05.999Z,22.80
2022-09-09T03:33:08.148Z,22.80
2022-09-09T03:34:10.759Z,22.80
2022-09-09T03:35:16.871Z,22.90
2022-09-09T03:36:19.078Z,22.90
2022-09-09T03:37:21.455Z,22.90
2022-09-09T03:38:31.762Z,23.00
2022-09-09T03:39:34.648Z,23.00
2022-09-09T03:40:36.855Z,23.00
2022-09-09T03:41:39.619Z,23.00
2022-09-09T03:42:42.348Z,23.00
2022-09-09T03:43:44.681Z,23.00
2022-09-09T03:44:55.740Z,23.10
2022-09-09T03:46:06.321Z,23.00
2022-09-09T03:47:08.899Z,23.00
2022-09-09T03:48:12.997Z,23.00
2022-09-09T03:49:16.395Z,23.00
2022-09-09T03:50:19.615Z,22.90
2022-09-09T03:51:23.159Z,22.90
2022-09-09T03:52:27.252Z,22.90
2022-09-09T03:53:30.274Z,22.90
2022-09-09T03:54:32.860Z,23.00
2022-09-09T03:56:03.382Z,23.00
2022-09-09T03:57:07.261Z,22.90
2022-09-09T03:58:09.426Z,22.90
2022-09-09T03:59:11.479Z,22.90
2022-09-09T04:00:14.083Z,22.90
2022-09-09T04:01:20.339Z,22.90
2022-09-09T04:02:31.995Z,22.90
2022-09-09T04:03:34.304Z,22.90
2022-09-09T04:04:36.636Z,23.00
2022-09-09T04:05:43.473Z,22.90
2022-09-09T04:06:46.268Z,22.90
2022-09-09T04:07:48.423Z,22.80
2022-09-09T04:08:50.780Z,22.80
2022-09-09T04:09:55.757Z,22.60
2022-09-09T04:10:59.044Z,22.60
2022-09-09T04:12:02.895Z,22.50
2022-09-09T04:13:06.387Z,22.50
2022-09-09T04:14:08.923Z,22.50
2022-09-09T04:15:19.768Z,22.50
2022-09-09T04:16:22.464Z,22.50
2022-09-09T04:17:25.223Z,22.50
2022-09-09T04:18:29.267Z,22.50
2022-09-09T04:19:31.930Z,22.40
2022-09-09T04:20:34.305Z,22.40
2022-09-09T04:21:36.426Z,22.30
2022-09-09T04:22:39.827Z,22.30
2022-09-09T04:23:43.275Z,22.30
2022-09-09T04:24:48.643Z,22.30
2022-09-09T04:25:57.991Z,22.20
2022-09-09T04:27:00.110Z,22.30
2022-09-09T04:28:03.694Z,22.20
2022-09-09T04:29:08.177Z,22.30
2022-09-09T04:30:11.311Z,22.20
